KCWV

Claxton-Evans County Airport

Claxton, Georgia, USA
METAR KCWV 151835Z AUTO 18007KT 140V200 7SM CLR 21/11 A2993 RMK AO2 T02070106
Observed Flight Rules
Feb-15 @ 18:35 UTC (33 minutes ago) Visual Flight Rules
Wind Visibility Clouds
180° at 7 knots 7 miles
  • Clear skies
Temperatures Readings
Current 21°C / 70°F
Dewpoint 11°C / 52°F
Humidity 53%
Altimeter 29.93" Hg
Pressure 1013.52 hPa
Elevation 33
METAR KCWV 151835Z AUTO 18007KT 140V200 7SM CLR 21/11 A2993 RMK AO2 T02070106
Observed Flight Rules
Feb-15 @ 18:35 UTC
(33 minutes ago)
VFR
Wind Visibility
180° at 7 knots 7 miles
Clouds
  • Clear skies
Temperature Dewpoint
21°C / 70°F 11°C / 52°F
Humidity Altimeter Pressure
53% 29.93" Hg 1013.52 hPa